Time;durP1;ratioP1;P1;durP2;ratioP2;P2;SDS_P1;SDS_P2;PMS_P1;PMS_P2;Temp;Humidity;BMP_temperature;BMP_pressure;BME280_temperature;BME280_humidity;BME280_pressure;Samples;Min_cycle;Max_cycle;Signal;HPM_P1;HPM_P2
2021/09/24 00:00:54;;;;;;;7.10;2.93;;;16.10;99.90;;;;;;5006142;28;20297;-51
2021/09/24 00:03:21;;;;;;;7.80;3.20;;;16.10;99.90;;;;;;5003451;28;20271;-51
2021/09/24 00:05:48;;;;;;;4.07;2.40;;;16.20;99.90;;;;;;5003094;28;20201;-51
2021/09/24 00:08:15;;;;;;;5.97;2.60;;;16.20;99.90;;;;;;5007613;28;20705;-51
2021/09/24 00:10:43;;;;;;;8.63;2.83;;;16.30;99.90;;;;;;4994997;28;20251;-51
2021/09/24 00:13:10;;;;;;;6.47;2.67;;;16.20;99.90;;;;;;5004537;28;20623;-51
2021/09/24 00:15:37;;;;;;;6.07;2.80;;;16.10;99.90;;;;;;5003404;28;20695;-51
2021/09/24 00:18:04;;;;;;;7.83;2.57;;;16.00;99.90;;;;;;5001122;28;20207;-51
2021/09/24 00:20:31;;;;;;;3.30;2.40;;;16.00;99.90;;;;;;5002702;28;20300;-51
2021/09/24 00:22:58;;;;;;;5.40;2.50;;;16.10;99.90;;;;;;4999393;28;20253;-51
2021/09/24 00:25:25;;;;;;;5.20;2.67;;;16.00;99.90;;;;;;4996728;28;20290;-51
2021/09/24 00:27:52;;;;;;;10.50;3.27;;;16.10;99.90;;;;;;4996003;28;20205;-51
2021/09/24 00:30:19;;;;;;;4.23;2.20;;;16.10;99.90;;;;;;5001485;28;20207;-51
2021/09/24 00:32:45;;;;;;;4.90;2.47;;;16.20;99.90;;;;;;4995339;28;20714;-51
2021/09/24 00:35:12;;;;;;;4.83;2.60;;;16.30;99.90;;;;;;4996937;28;20207;-51
2021/09/24 00:37:39;;;;;;;4.87;2.20;;;16.30;99.90;;;;;;4996456;28;20301;-51
2021/09/24 00:40:08;;;;;;;4.97;3.40;;;16.30;99.90;;;;;;4993788;28;20307;-51
2021/09/24 00:42:35;;;;;;;5.27;2.30;;;16.10;99.90;;;;;;5003718;28;20313;-51
2021/09/24 00:45:04;;;;;;;4.43;2.77;;;16.00;99.90;;;;;;5006000;28;20199;-51
2021/09/24 00:47:31;;;;;;;6.20;2.57;;;16.00;99.90;;;;;;5002161;28;20750;-51
2021/09/24 00:49:58;;;;;;;7.30;3.17;;;15.90;99.90;;;;;;5004986;28;20289;-51
2021/09/24 00:52:27;;;;;;;8.97;3.47;;;15.90;99.90;;;;;;5001712;28;20240;-51
2021/09/24 00:54:54;;;;;;;6.60;5.73;;;16.00;99.90;;;;;;4998401;28;20514;-51
2021/09/24 00:57:21;;;;;;;12.43;10.67;;;16.10;99.90;;;;;;5010592;28;20717;-51
2021/09/24 00:59:50;;;;;;;12.17;10.63;;;16.10;99.90;;;;;;4996278;28;20228;-51
2021/09/24 01:02:17;;;;;;;11.27;7.53;;;16.20;99.90;;;;;;5009165;28;20682;-51
2021/09/24 01:04:45;;;;;;;11.80;7.67;;;16.20;99.90;;;;;;4999104;28;20657;-51
2021/09/24 01:07:13;;;;;;;12.57;7.43;;;16.30;99.90;;;;;;5001017;28;20236;-51
2021/09/24 01:09:40;;;;;;;10.50;7.17;;;16.10;99.90;;;;;;5000340;28;20296;-50
2021/09/24 01:12:08;;;;;;;16.10;8.90;;;16.10;99.90;;;;;;4993830;28;20227;-51
2021/09/24 01:14:35;;;;;;;13.17;9.33;;;16.30;99.90;;;;;;5002633;28;21005;-51
2021/09/24 01:17:02;;;;;;;14.90;11.70;;;16.30;99.90;;;;;;4994527;28;20216;-51
2021/09/24 01:19:28;;;;;;;17.50;12.80;;;16.40;99.90;;;;;;4999465;28;20671;-51
2021/09/24 01:21:56;;;;;;;14.47;12.60;;;16.30;99.90;;;;;;5000837;28;20259;-51
2021/09/24 01:24:22;;;;;;;12.43;10.70;;;16.10;99.90;;;;;;4995710;28;20249;-51
2021/09/24 01:26:52;;;;;;;14.57;10.13;;;16.10;99.90;;;;;;4996187;28;20293;-55
2021/09/24 01:29:21;;;;;;;12.50;8.50;;;16.00;99.90;;;;;;4997481;28;20227;-51
2021/09/24 01:31:50;;;;;;;12.50;8.77;;;16.00;99.90;;;;;;5000148;28;20218;-51
2021/09/24 01:34:17;;;;;;;13.13;8.87;;;16.10;99.90;;;;;;4994931;28;20194;-50
2021/09/24 01:36:43;;;;;;;14.70;9.00;;;16.10;99.90;;;;;;4991618;28;20200;-51
2021/09/24 01:39:11;;;;;;;13.47;8.63;;;16.00;99.90;;;;;;5011930;28;20265;-51
2021/09/24 01:41:43;;;;;;;13.83;9.50;;;15.90;99.90;;;;;;4994814;28;20213;-51
2021/09/24 01:44:10;;;;;;;15.13;9.23;;;15.90;99.90;;;;;;4997087;28;20202;-51
2021/09/24 01:46:38;;;;;;;16.60;10.43;;;16.00;99.90;;;;;;5000548;28;20237;-51
2021/09/24 01:49:07;;;;;;;14.70;10.13;;;16.00;99.90;;;;;;4997477;28;20648;-50
2021/09/24 01:51:39;;;;;;;13.53;9.77;;;16.00;99.90;;;;;;4998290;28;20302;-50
2021/09/24 01:54:07;;;;;;;16.43;10.30;;;16.00;99.90;;;;;;4997388;28;20231;-51
2021/09/24 01:56:34;;;;;;;20.30;10.57;;;16.00;99.90;;;;;;4997493;28;20207;-51
2021/09/24 01:59:01;;;;;;;21.23;12.63;;;16.00;99.90;;;;;;4997327;28;20233;-51
2021/09/24 02:01:28;;;;;;;18.37;11.63;;;16.00;99.90;;;;;;5000246;28;20260;-51
2021/09/24 02:03:55;;;;;;;26.40;12.70;;;15.90;99.90;;;;;;4995330;28;20214;-51
2021/09/24 02:06:22;;;;;;;22.40;13.00;;;16.10;99.90;;;;;;5001324;28;20207;-51
2021/09/24 02:08:49;;;;;;;25.10;13.63;;;16.00;99.90;;;;;;5000595;28;20202;-51
2021/09/24 02:11:16;;;;;;;25.17;13.97;;;16.10;99.90;;;;;;5004779;28;20719;-51
2021/09/24 02:13:43;;;;;;;33.77;15.50;;;16.10;99.90;;;;;;5001254;28;20301;-51
2021/09/24 02:16:11;;;;;;;24.17;13.83;;;16.10;99.90;;;;;;4998968;28;20225;-51
2021/09/24 02:18:39;;;;;;;25.77;15.43;;;16.10;99.90;;;;;;5000984;28;20216;-51
2021/09/24 02:21:07;;;;;;;26.53;15.37;;;16.10;99.90;;;;;;4995223;28;20758;-51
2021/09/24 02:23:35;;;;;;;32.13;16.00;;;16.00;99.90;;;;;;5003658;28;20558;-51
2021/09/24 02:26:04;;;;;;;28.13;17.13;;;15.90;99.90;;;;;;4998402;28;20315;-51
2021/09/24 02:28:32;;;;;;;33.33;17.00;;;15.90;99.90;;;;;;5000938;28;20587;-51
2021/09/24 02:30:59;;;;;;;35.40;18.40;;;16.00;99.90;;;;;;5005200;28;20273;-51
2021/09/24 02:33:26;;;;;;;34.60;19.30;;;16.00;99.90;;;;;;5005328;28;20211;-51
2021/09/24 02:35:53;;;;;;;30.77;19.43;;;16.00;99.90;;;;;;5003015;28;20258;-51
2021/09/24 02:38:20;;;;;;;35.53;19.23;;;16.10;99.90;;;;;;5007037;28;20324;-51
2021/09/24 02:40:46;;;;;;;36.13;19.17;;;16.20;99.90;;;;;;5002368;28;20297;-51
2021/09/24 02:43:13;;;;;;;35.70;19.63;;;16.20;99.90;;;;;;4999364;28;20322;-51
2021/09/24 02:45:40;;;;;;;38.37;19.90;;;16.20;99.90;;;;;;5007302;28;20665;-51
2021/09/24 02:48:07;;;;;;;36.17;18.43;;;16.20;99.90;;;;;;5003205;28;20625;-51
2021/09/24 02:50:34;;;;;;;36.50;18.80;;;16.20;99.90;;;;;;5003728;28;20197;-51
2021/09/24 02:53:00;;;;;;;33.63;19.53;;;16.40;99.90;;;;;;4997174;28;20272;-51
2021/09/24 02:55:27;;;;;;;40.17;19.33;;;16.40;99.90;;;;;;4998901;28;20216;-51
2021/09/24 02:57:54;;;;;;;38.73;20.57;;;16.30;99.90;;;;;;4999158;28;20250;-51
2021/09/24 03:00:21;;;;;;;40.43;19.10;;;16.40;99.90;;;;;;5004513;28;20571;-51
2021/09/24 03:02:48;;;;;;;39.67;18.17;;;16.30;99.90;;;;;;5006459;28;20216;-51
2021/09/24 03:05:15;;;;;;;32.47;18.07;;;16.30;99.90;;;;;;5001293;28;20309;-51
2021/09/24 03:07:42;;;;;;;40.23;19.63;;;16.30;99.90;;;;;;5001591;28;20681;-51
2021/09/24 03:10:10;;;;;;;41.90;20.90;;;16.30;99.90;;;;;;5002126;28;20273;-51
2021/09/24 03:12:37;;;;;;;51.43;21.47;;;16.30;99.90;;;;;;5005501;28;20196;-51
2021/09/24 03:15:07;;;;;;;43.57;20.43;;;16.30;99.90;;;;;;4997251;28;20396;-51
2021/09/24 03:17:34;;;;;;;43.13;21.93;;;16.20;99.90;;;;;;5002700;28;20202;-51
2021/09/24 03:20:02;;;;;;;40.13;20.67;;;16.20;99.90;;;;;;5003867;28;20670;-51
2021/09/24 03:22:29;;;;;;;45.10;23.77;;;16.20;99.90;;;;;;5001157;28;20249;-51
2021/09/24 03:24:56;;;;;;;50.63;23.67;;;16.20;99.90;;;;;;4996735;28;20237;-51
2021/09/24 03:27:23;;;;;;;44.67;23.13;;;16.20;99.90;;;;;;4998009;28;20207;-51
2021/09/24 03:29:50;;;;;;;50.67;23.90;;;16.20;99.90;;;;;;5003644;28;20555;-51
2021/09/24 03:32:19;;;;;;;49.27;25.27;;;16.20;99.90;;;;;;4999107;28;20225;-51
2021/09/24 03:34:48;;;;;;;51.80;25.60;;;16.20;99.90;;;;;;4998945;28;20224;-51
2021/09/24 03:37:15;;;;;;;51.37;24.67;;;16.10;99.90;;;;;;4995668;28;20261;-51
2021/09/24 03:39:42;;;;;;;53.60;25.03;;;16.20;99.90;;;;;;5000381;28;20203;-51
2021/09/24 03:42:10;;;;;;;50.53;23.83;;;16.20;99.90;;;;;;4997605;28;20588;-51
2021/09/24 03:44:37;;;;;;;56.00;24.90;;;16.20;99.90;;;;;;5005789;28;20202;-51
2021/09/24 03:47:05;;;;;;;58.67;26.17;;;16.20;99.90;;;;;;5010150;28;20250;-51
2021/09/24 03:49:32;;;;;;;48.60;24.70;;;16.10;99.90;;;;;;4999730;28;20229;-51
2021/09/24 03:52:00;;;;;;;52.60;25.60;;;16.20;99.90;;;;;;4995521;28;20202;-51
2021/09/24 03:54:28;;;;;;;55.93;26.90;;;16.20;99.90;;;;;;4996533;28;20638;-51
2021/09/24 03:56:55;;;;;;;57.70;27.47;;;16.10;99.90;;;;;;5010264;28;20595;-51
2021/09/24 03:59:22;;;;;;;47.07;25.67;;;16.10;99.90;;;;;;5000067;28;20294;-51
2021/09/24 04:01:49;;;;;;;54.20;26.43;;;16.20;99.90;;;;;;5006347;28;20254;-51
2021/09/24 04:04:16;;;;;;;56.00;27.00;;;16.10;99.90;;;;;;5008360;28;20223;-51
2021/09/24 04:06:43;;;;;;;50.20;24.97;;;16.10;99.90;;;;;;5004666;28;20525;-51
2021/09/24 04:09:10;;;;;;;52.43;27.07;;;16.10;99.90;;;;;;5004992;28;20221;-51
2021/09/24 04:11:40;;;;;;;49.40;24.73;;;16.10;99.90;;;;;;4999551;28;20195;-51
2021/09/24 04:14:07;;;;;;;57.00;24.13;;;16.10;99.90;;;;;;4999591;28;20254;-51
2021/09/24 04:16:34;;;;;;;47.70;23.63;;;16.10;99.90;;;;;;5001984;28;20230;-51
2021/09/24 04:19:01;;;;;;;43.10;22.47;;;16.10;99.90;;;;;;5010577;28;20233;-51
2021/09/24 04:21:27;;;;;;;39.47;21.67;;;16.10;99.90;;;;;;5010436;28;20732;-51
2021/09/24 04:23:54;;;;;;;40.53;20.37;;;16.10;99.90;;;;;;5010471;28;20209;-51
2021/09/24 04:26:21;;;;;;;43.80;20.73;;;16.10;99.90;;;;;;5002698;28;20630;-50
2021/09/24 04:28:48;;;;;;;45.37;21.37;;;16.10;99.90;;;;;;5003086;28;20646;-52
2021/09/24 04:31:15;;;;;;;45.17;22.67;;;16.10;99.90;;;;;;5000852;28;20602;-50
2021/09/24 04:33:42;;;;;;;45.90;22.50;;;16.10;99.90;;;;;;5001182;28;20235;-50
2021/09/24 04:36:09;;;;;;;42.50;21.97;;;16.20;99.90;;;;;;5003495;28;20728;-51
2021/09/24 04:38:36;;;;;;;48.27;23.40;;;16.30;99.90;;;;;;5000692;28;20299;-51
2021/09/24 04:41:02;;;;;;;49.67;24.07;;;16.30;99.90;;;;;;5001610;28;20231;-51
2021/09/24 04:43:30;;;;;;;52.73;23.80;;;16.20;99.90;;;;;;5005705;28;20247;-53
2021/09/24 04:45:57;;;;;;;49.23;24.37;;;16.30;99.90;;;;;;5008233;28;20227;-50
2021/09/24 04:48:24;;;;;;;51.20;23.93;;;16.30;99.90;;;;;;5001685;28;20614;-50
2021/09/24 04:50:51;;;;;;;49.47;24.10;;;16.20;99.90;;;;;;5002177;28;20257;-50
2021/09/24 04:53:17;;;;;;;48.60;25.37;;;16.20;99.90;;;;;;5000221;28;20198;-50
2021/09/24 04:55:44;;;;;;;51.33;25.07;;;16.30;99.90;;;;;;5001016;28;20286;-50
2021/09/24 04:58:11;;;;;;;55.90;25.77;;;16.20;99.90;;;;;;5007672;28;20262;-50
2021/09/24 05:00:38;;;;;;;54.60;24.67;;;16.20;99.90;;;;;;5005634;28;20233;-50
2021/09/24 05:03:05;;;;;;;51.60;23.53;;;16.20;99.90;;;;;;5003627;28;20307;-50
2021/09/24 05:05:32;;;;;;;52.73;23.90;;;16.20;99.90;;;;;;4999981;28;20212;-50
2021/09/24 05:07:58;;;;;;;54.27;24.03;;;16.10;99.90;;;;;;4996565;28;20231;-50
2021/09/24 05:10:25;;;;;;;52.13;23.50;;;16.20;99.90;;;;;;5012944;28;20236;-50
2021/09/24 05:12:52;;;;;;;55.03;24.53;;;16.20;99.90;;;;;;5006375;28;20292;-50
2021/09/24 05:15:19;;;;;;;50.97;25.00;;;16.20;99.90;;;;;;5002343;28;20303;-50
2021/09/24 05:17:46;;;;;;;58.57;25.53;;;16.20;99.90;;;;;;5001709;28;20638;-50
2021/09/24 05:20:13;;;;;;;58.07;25.07;;;16.20;99.90;;;;;;4999304;28;20332;-50
2021/09/24 05:22:41;;;;;;;59.30;26.43;;;16.30;99.90;;;;;;5000284;28;20317;-52
2021/09/24 05:25:09;;;;;;;53.70;25.70;;;16.20;99.90;;;;;;5000707;28;20519;-50
2021/09/24 05:27:35;;;;;;;55.43;25.40;;;16.20;99.90;;;;;;5000919;28;20226;-50
2021/09/24 05:30:04;;;;;;;55.77;25.37;;;16.10;99.90;;;;;;5001874;28;20229;-50
2021/09/24 05:32:30;;;;;;;60.83;26.77;;;16.10;99.90;;;;;;4999379;28;20650;-52
2021/09/24 05:34:57;;;;;;;53.57;25.33;;;16.10;99.90;;;;;;5009261;28;21873;-51
2021/09/24 05:37:24;;;;;;;69.33;27.20;;;16.00;99.90;;;;;;5006335;28;20213;-50
2021/09/24 05:39:51;;;;;;;55.60;27.07;;;16.10;99.90;;;;;;4991518;28;20288;-50
2021/09/24 05:42:18;;;;;;;58.37;25.57;;;16.10;99.90;;;;;;4999298;28;20207;-50
2021/09/24 05:44:45;;;;;;;54.97;25.97;;;16.10;99.90;;;;;;5004911;28;20220;-51
2021/09/24 05:47:11;;;;;;;65.53;28.40;;;16.10;99.90;;;;;;5007412;28;20229;-50
2021/09/24 05:49:38;;;;;;;70.40;27.60;;;16.00;99.90;;;;;;5005726;28;20738;-52
2021/09/24 05:52:05;;;;;;;68.40;29.03;;;16.20;99.90;;;;;;5001781;28;20333;-51
2021/09/24 05:54:32;;;;;;;65.00;28.07;;;16.20;99.90;;;;;;4998162;28;20294;-51
2021/09/24 05:56:59;;;;;;;69.93;29.77;;;16.20;99.90;;;;;;4999239;28;20234;-50
2021/09/24 05:59:26;;;;;;;82.53;29.80;;;16.30;99.90;;;;;;5006413;28;20866;-50
2021/09/24 06:01:53;;;;;;;81.00;31.57;;;16.20;99.90;;;;;;4999951;28;20705;-51
2021/09/24 06:04:20;;;;;;;91.37;32.40;;;16.20;99.90;;;;;;5002980;28;20632;-50
2021/09/24 06:06:47;;;;;;;83.60;31.27;;;16.10;99.90;;;;;;5001458;28;20368;-50
2021/09/24 06:09:15;;;;;;;85.90;31.17;;;16.20;99.90;;;;;;5003224;28;20282;-50
2021/09/24 06:11:42;;;;;;;89.03;31.77;;;16.30;99.90;;;;;;4995032;28;20201;-52
2021/09/24 06:14:09;;;;;;;83.70;29.83;;;16.20;99.90;;;;;;5005641;28;20289;-53
2021/09/24 06:16:37;;;;;;;90.53;31.80;;;16.30;99.90;;;;;;4998939;28;20590;-50
2021/09/24 06:19:04;;;;;;;83.63;31.50;;;16.40;99.90;;;;;;5010270;28;20290;-50
2021/09/24 06:21:32;;;;;;;93.33;32.50;;;16.40;99.90;;;;;;5012210;28;20727;-51
2021/09/24 06:23:58;;;;;;;87.43;32.33;;;16.40;99.90;;;;;;5015816;28;20625;-51
2021/09/24 06:26:25;;;;;;;85.23;30.50;;;16.40;99.90;;;;;;5002181;28;20581;-51
2021/09/24 06:28:52;;;;;;;80.70;29.97;;;16.40;99.90;;;;;;5001615;28;20201;-50
2021/09/24 06:31:19;;;;;;;81.53;30.80;;;16.50;99.90;;;;;;5000771;28;20317;-51
2021/09/24 06:33:46;;;;;;;83.40;30.67;;;16.50;99.90;;;;;;5000962;28;20290;-52
2021/09/24 06:36:17;;;;;;;98.17;32.63;;;16.40;99.90;;;;;;5000177;28;20739;-50
2021/09/24 06:38:45;;;;;;;101.10;32.97;;;16.30;99.90;;;;;;4992364;28;20369;-51
2021/09/24 06:41:13;;;;;;;93.77;32.67;;;16.30;99.90;;;;;;4998869;28;21258;-50
2021/09/24 06:43:40;;;;;;;98.53;33.80;;;16.30;99.90;;;;;;4996583;28;20318;-51
2021/09/24 06:46:07;;;;;;;92.83;31.87;;;16.40;99.90;;;;;;5002103;28;20259;-51
2021/09/24 06:48:34;;;;;;;92.23;33.80;;;16.30;99.90;;;;;;5002924;28;20262;-50
2021/09/24 06:51:02;;;;;;;96.63;32.43;;;16.40;99.90;;;;;;4994333;28;20294;-53
2021/09/24 06:53:29;;;;;;;91.87;32.07;;;16.30;99.90;;;;;;4997163;28;20547;-50
2021/09/24 06:55:57;;;;;;;85.70;31.53;;;16.30;99.90;;;;;;4994497;28;20229;-50
2021/09/24 06:58:24;;;;;;;86.73;33.60;;;16.40;99.90;;;;;;5010434;28;20517;-50
2021/09/24 07:00:51;;;;;;;86.83;31.23;;;16.40;99.90;;;;;;4999522;28;20372;-50
2021/09/24 07:03:18;;;;;;;84.43;30.73;;;16.50;99.90;;;;;;4995971;28;20222;-50
2021/09/24 07:05:45;;;;;;;81.97;31.03;;;16.50;99.90;;;;;;4999563;28;20725;-50
2021/09/24 07:08:12;;;;;;;84.30;32.30;;;16.50;99.90;;;;;;4998994;28;20219;-50
2021/09/24 07:10:39;;;;;;;82.67;30.83;;;16.50;99.90;;;;;;4997038;28;20199;-50
2021/09/24 07:13:06;;;;;;;82.27;30.40;;;16.50;99.90;;;;;;4996793;28;20300;-50
2021/09/24 07:15:33;;;;;;;77.40;30.80;;;16.60;99.90;;;;;;4996728;28;20225;-53
2021/09/24 07:17:59;;;;;;;77.77;31.20;;;16.60;99.90;;;;;;4999950;28;20252;-50
2021/09/24 07:20:26;;;;;;;67.90;29.53;;;16.50;99.90;;;;;;4996021;28;20353;-53
2021/09/24 07:23:03;;;;;;;61.87;28.53;;;16.60;99.90;;;;;;4998664;28;20257;-50
2021/09/24 07:25:30;;;;;;;73.83;29.73;;;16.60;99.90;;;;;;5001181;28;20293;-52
2021/09/24 07:27:57;;;;;;;67.37;29.67;;;16.70;99.90;;;;;;4994092;28;20249;-50
2021/09/24 07:30:24;;;;;;;68.20;29.67;;;16.70;99.90;;;;;;4998370;28;20625;-51
2021/09/24 07:32:51;;;;;;;71.37;30.33;;;16.80;99.90;;;;;;4999519;28;20622;-51
2021/09/24 07:35:17;;;;;;;61.20;28.03;;;16.80;99.90;;;;;;5002664;28;20719;-51
2021/09/24 07:37:44;;;;;;;66.40;29.63;;;16.80;99.90;;;;;;4993629;28;20239;-51
2021/09/24 07:40:12;;;;;;;69.13;29.33;;;16.90;99.90;;;;;;4998005;28;20341;-53
2021/09/24 07:42:39;;;;;;;55.83;28.93;;;16.90;99.90;;;;;;5002386;28;20328;-50
2021/09/24 07:45:06;;;;;;;63.17;28.00;;;17.00;99.90;;;;;;4996286;28;20310;-53
2021/09/24 07:47:33;;;;;;;54.53;26.63;;;17.00;99.90;;;;;;5004306;28;20631;-50
2021/09/24 07:50:00;;;;;;;52.83;26.67;;;17.00;99.90;;;;;;4995716;28;20200;-50
2021/09/24 07:52:27;;;;;;;53.50;27.97;;;17.00;99.90;;;;;;5007530;28;20297;-50
2021/09/24 07:54:54;;;;;;;53.27;27.83;;;17.10;99.90;;;;;;4997424;28;20202;-58
2021/09/24 07:57:21;;;;;;;60.13;28.90;;;17.10;99.90;;;;;;4995853;28;22404;-52
2021/09/24 07:59:48;;;;;;;52.10;26.80;;;17.10;99.90;;;;;;5003816;28;20203;-50
2021/09/24 08:02:16;;;;;;;54.87;27.00;;;17.10;99.90;;;;;;4994953;28;20329;-50
2021/09/24 08:04:43;;;;;;;53.43;26.27;;;17.30;99.90;;;;;;4997593;28;20667;-50
2021/09/24 08:07:09;;;;;;;48.33;25.50;;;17.30;99.90;;;;;;5010140;28;20307;-50
2021/09/24 08:09:37;;;;;;;41.87;24.47;;;17.40;99.90;;;;;;5015073;28;20229;-50
2021/09/24 08:12:04;;;;;;;49.27;25.17;;;17.30;99.90;;;;;;4999668;28;20282;-50
2021/09/24 08:14:31;;;;;;;47.23;25.40;;;17.30;99.90;;;;;;4998426;28;20212;-50
2021/09/24 08:16:58;;;;;;;45.50;24.33;;;17.30;99.90;;;;;;4992324;28;20274;-50
2021/09/24 08:19:25;;;;;;;42.83;23.03;;;17.40;99.90;;;;;;5000315;28;20204;-50
2021/09/24 08:21:52;;;;;;;42.33;23.93;;;17.30;99.90;;;;;;4999483;28;20256;-51
2021/09/24 08:24:19;;;;;;;40.83;22.50;;;17.40;99.90;;;;;;4995722;28;20326;-51
2021/09/24 08:26:45;;;;;;;39.63;22.97;;;17.40;99.90;;;;;;5000877;28;20630;-50
2021/09/24 08:29:12;;;;;;;34.60;22.47;;;17.40;99.90;;;;;;4992849;28;20300;-50
2021/09/24 08:31:39;;;;;;;38.23;22.57;;;17.50;99.90;;;;;;5011054;28;20215;-51
2021/09/24 08:34:06;;;;;;;38.70;21.53;;;17.50;99.90;;;;;;4999741;28;20221;-51
2021/09/24 08:36:33;;;;;;;36.30;21.57;;;17.70;99.90;;;;;;4994414;28;20292;-51
2021/09/24 08:39:01;;;;;;;32.83;20.97;;;17.90;99.90;;;;;;4992412;28;20211;-50
2021/09/24 08:41:29;;;;;;;32.67;21.13;;;18.00;99.90;;;;;;4989421;28;20236;-53
2021/09/24 08:43:58;;;;;;;34.37;20.63;;;18.00;99.90;;;;;;4998851;28;20331;-51
2021/09/24 08:46:26;;;;;;;33.77;20.70;;;18.00;99.90;;;;;;4999153;28;20236;-51
2021/09/24 08:48:53;;;;;;;32.57;21.27;;;18.00;99.90;;;;;;5003275;28;20760;-51
2021/09/24 08:51:20;;;;;;;30.23;19.43;;;17.90;99.90;;;;;;4995719;28;21328;-51
2021/09/24 08:53:47;;;;;;;32.93;20.67;;;17.90;99.90;;;;;;4998411;28;20825;-51
2021/09/24 08:56:14;;;;;;;31.30;20.30;;;18.00;99.90;;;;;;5002916;28;20249;-51
2021/09/24 08:58:41;;;;;;;29.30;20.87;;;18.10;99.90;;;;;;4998229;28;20290;-51
2021/09/24 09:01:08;;;;;;;33.07;20.87;;;18.10;99.90;;;;;;4997960;28;20201;-51
2021/09/24 09:03:42;;;;;;;35.90;20.83;;;18.10;99.90;;;;;;4991890;28;20585;-51
2021/09/24 09:06:12;;;;;;;30.80;21.13;;;18.10;99.90;;;;;;4987871;28;20304;-51
2021/09/24 09:08:39;;;;;;;30.53;22.13;;;18.10;99.90;;;;;;4990263;28;20300;-51
2021/09/24 09:11:07;;;;;;;32.67;21.67;;;18.10;99.90;;;;;;4997239;28;20291;-51
2021/09/24 09:13:40;;;;;;;33.70;21.53;;;18.10;99.90;;;;;;5006441;28;20337;-58
2021/09/24 09:16:11;;;;;;;33.07;20.97;;;18.00;99.90;;;;;;4989641;28;20205;-52
2021/09/24 09:18:40;;;;;;;33.03;20.57;;;18.10;99.90;;;;;;4993921;28;20209;-51
2021/09/24 09:21:10;;;;;;;31.87;20.30;;;18.10;99.90;;;;;;4995382;28;20334;-51
2021/09/24 09:23:40;;;;;;;31.67;19.93;;;18.00;99.90;;;;;;4991672;28;20235;-51
2021/09/24 09:26:10;;;;;;;30.73;19.43;;;18.20;99.90;;;;;;4994452;28;20237;-51
2021/09/24 09:28:49;;;;;;;30.77;21.30;;;18.10;99.90;;;;;;4993741;28;20295;-51
2021/09/24 09:31:32;;;;;;;28.47;20.40;;;18.10;99.90;;;;;;4996323;28;20315;-51
2021/09/24 09:34:03;;;;;;;27.73;20.70;;;18.20;99.90;;;;;;5000589;28;20200;-51
2021/09/24 09:36:37;;;;;;;28.93;20.20;;;18.20;99.90;;;;;;4994916;28;20274;-51
2021/09/24 09:39:12;;;;;;;27.67;19.53;;;18.30;99.90;;;;;;4995513;28;20699;-51
2021/09/24 09:41:50;;;;;;;27.53;18.13;;;18.30;99.90;;;;;;4990413;28;20291;-51
2021/09/24 09:44:29;;;;;;;26.10;18.50;;;18.30;99.90;;;;;;4995969;28;20676;-51
2021/09/24 09:46:56;;;;;;;29.33;20.20;;;18.30;99.90;;;;;;5002929;28;20269;-51
2021/09/24 09:49:29;;;;;;;31.47;21.37;;;18.30;99.90;;;;;;4996330;28;20299;-51
2021/09/24 09:52:07;;;;;;;30.30;21.10;;;18.30;99.90;;;;;;4988088;28;20696;-51
2021/09/24 09:54:36;;;;;;;31.93;20.17;;;18.20;99.90;;;;;;4989254;28;20245;-51
2021/09/24 09:57:18;;;;;;;27.17;19.70;;;18.40;99.90;;;;;;4996507;28;20300;-51
2021/09/24 09:59:50;;;;;;;29.83;19.07;;;18.30;99.90;;;;;;5003468;28;20235;-51
2021/09/24 10:02:22;;;;;;;28.87;20.07;;;18.30;99.90;;;;;;4992232;28;20258;-51
2021/09/24 10:04:52;;;;;;;27.17;18.60;;;18.30;99.90;;;;;;4996965;28;20228;-51
2021/09/24 10:07:24;;;;;;;29.23;20.23;;;18.30;99.90;;;;;;4992818;28;20233;-51
2021/09/24 10:10:12;;;;;;;27.13;18.70;;;18.30;99.90;;;;;;5004260;28;20242;-51
2021/09/24 10:12:41;;;;;;;24.10;17.57;;;18.40;99.90;;;;;;5003000;28;20648;-51
2021/09/24 10:15:11;;;;;;;27.30;18.60;;;18.40;99.90;;;;;;5003878;28;20268;-51
2021/09/24 10:17:38;;;;;;;26.47;17.53;;;18.30;99.90;;;;;;4987484;28;20245;-51
2021/09/24 10:20:08;;;;;;;23.23;16.43;;;18.40;99.90;;;;;;4997904;28;20214;-51
2021/09/24 10:22:35;;;;;;;28.77;17.90;;;18.40;99.90;;;;;;4998109;28;20232;-51
2021/09/24 10:25:04;;;;;;;24.27;16.00;;;18.40;99.90;;;;;;4996165;28;20403;-51
2021/09/24 10:27:35;;;;;;;21.67;16.00;;;18.50;99.90;;;;;;5007254;28;20227;-51
2021/09/24 10:30:10;;;;;;;21.33;14.33;;;18.60;99.90;;;;;;5000369;28;20545;-51
2021/09/24 10:32:51;;;;;;;22.73;15.50;;;18.50;99.90;;;;;;4999268;28;20234;-51
2021/09/24 10:35:18;;;;;;;18.90;13.93;;;18.50;99.90;;;;;;5011345;28;20212;-54
2021/09/24 10:37:48;;;;;;;20.97;13.33;;;18.60;99.90;;;;;;5004691;28;20640;-51
2021/09/24 10:40:24;;;;;;;15.60;11.90;;;18.60;99.90;;;;;;4991483;28;20243;-51
2021/09/24 10:42:55;;;;;;;14.80;10.80;;;18.70;99.90;;;;;;4996735;28;20271;-51
2021/09/24 10:45:40;;;;;;;12.87;9.83;;;18.60;99.90;;;;;;5009467;28;20623;-51
2021/09/24 10:48:21;;;;;;;12.03;9.93;;;18.60;99.90;;;;;;5005547;28;20515;-51
2021/09/24 10:50:56;;;;;;;12.43;9.43;;;18.60;99.90;;;;;;4989771;28;20234;-51
2021/09/24 10:53:34;;;;;;;12.63;9.97;;;18.70;99.90;;;;;;4995594;28;20325;-52
2021/09/24 10:56:04;;;;;;;13.13;9.93;;;18.70;99.90;;;;;;4992847;28;20195;-51
2021/09/24 10:58:30;;;;;;;14.60;9.97;;;18.70;99.90;;;;;;4990508;28;20302;-52
2021/09/24 11:01:01;;;;;;;13.40;10.93;;;19.00;99.90;;;;;;5000978;28;20202;-50
2021/09/24 11:03:29;;;;;;;14.53;10.60;;;19.10;99.90;;;;;;5000036;28;20572;-53
2021/09/24 11:06:01;;;;;;;11.93;10.07;;;19.30;99.90;;;;;;4989838;28;20291;-50
2021/09/24 11:08:37;;;;;;;14.80;9.67;;;19.30;99.90;;;;;;5000095;28;20205;-51
2021/09/24 11:11:23;;;;;;;12.87;8.97;;;19.40;99.90;;;;;;5004840;28;20271;-53
2021/09/24 11:13:52;;;;;;;12.77;9.90;;;19.50;99.90;;;;;;5008052;28;20212;-51
2021/09/24 11:16:23;;;;;;;13.10;9.53;;;19.50;99.90;;;;;;5010222;28;20294;-50
2021/09/24 11:19:00;;;;;;;11.93;9.67;;;19.40;99.90;;;;;;5008851;28;20610;-50
2021/09/24 11:21:30;;;;;;;12.27;10.03;;;19.30;99.90;;;;;;4994330;28;20246;-50
2021/09/24 11:24:00;;;;;;;15.67;10.03;;;19.40;99.90;;;;;;5015864;28;20221;-50
2021/09/24 11:26:29;;;;;;;13.87;10.43;;;19.40;99.90;;;;;;4998371;28;20268;-50
2021/09/24 11:29:05;;;;;;;12.67;10.00;;;19.40;99.90;;;;;;5002117;28;20311;-50
2021/09/24 11:31:53;;;;;;;14.87;11.03;;;19.70;99.90;;;;;;5012065;28;20716;-50
2021/09/24 11:34:46;;;;;;;14.13;9.80;;;19.60;99.90;;;;;;4990005;28;20234;-51
2021/09/24 11:37:21;;;;;;;11.97;9.70;;;19.80;99.90;;;;;;5007955;28;20687;-50
2021/09/24 11:40:01;;;;;;;13.90;9.07;;;19.60;99.90;;;;;;5006521;28;20777;-50
2021/09/24 11:42:31;;;;;;;12.80;8.77;;;19.50;99.90;;;;;;4996247;28;20684;-50
2021/09/24 11:45:00;;;;;;;16.63;9.67;;;19.50;99.90;;;;;;4994901;28;20356;-50
2021/09/24 11:47:31;;;;;;;10.20;8.90;;;19.70;99.90;;;;;;5008479;28;20201;-51
2021/09/24 11:50:08;;;;;;;15.33;8.57;;;19.90;99.90;;;;;;4992019;28;20209;-50
2021/09/24 11:52:51;;;;;;;12.10;10.30;;;20.30;99.90;;;;;;5003100;28;20711;-50
2021/09/24 11:55:24;;;;;;;12.80;9.50;;;20.00;99.90;;;;;;4994135;28;20275;-50
2021/09/24 11:58:09;;;;;;;11.10;9.77;;;19.90;99.90;;;;;;4992407;28;20255;-50
2021/09/24 12:00:54;;;;;;;13.13;10.40;;;20.00;99.90;;;;;;5004366;28;20247;-52
2021/09/24 12:03:27;;;;;;;11.93;9.43;;;20.10;99.90;;;;;;5000510;28;20272;-50
2021/09/24 12:06:10;;;;;;;12.20;10.07;;;20.30;99.90;;;;;;4993647;28;20866;-50
2021/09/24 12:08:42;;;;;;;12.80;10.30;;;20.20;99.90;;;;;;4993709;28;20201;-50
2021/09/24 12:11:15;;;;;;;11.83;9.57;;;19.90;99.90;;;;;;5007095;28;20659;-50
2021/09/24 12:13:49;;;;;;;14.20;10.47;;;19.90;99.90;;;;;;4999806;28;20531;-52
2021/09/24 12:16:40;;;;;;;12.77;9.43;;;20.00;99.90;;;;;;4946563;28;20220;-50
2021/09/24 12:19:16;;;;;;;11.60;9.57;;;20.80;99.90;;;;;;4947736;29;20215;-50
2021/09/24 12:21:56;;;;;;;12.90;9.57;;;21.30;99.90;;;;;;4947531;28;20289;-50
2021/09/24 12:24:38;;;;;;;9.87;8.87;;;21.50;50.00;;;;;;4946222;28;20364;-50
2021/09/24 12:27:06;;;;;;;9.73;8.80;;;21.20;13.90;;;;;;4945815;28;20314;-50
2021/09/24 12:29:35;;;;;;;12.17;8.87;;;21.50;1.00;;;;;;4947419;28;20291;-51
2021/09/24 12:32:07;;;;;;;10.50;9.40;;;21.40;23.50;;;;;;4947586;28;20296;-50
2021/09/24 12:35:00;;;;;;;10.87;8.97;;;21.20;79.50;;;;;;4946509;28;20258;-51
2021/09/24 12:37:36;;;;;;;11.20;9.10;;;21.10;99.70;;;;;;4947777;28;20759;-53
2021/09/24 12:40:09;;;;;;;10.87;9.13;;;20.60;99.90;;;;;;4946283;28;20784;-50